createdAt,value
2023-04-15T00:00:05.484Z,87.67
2023-04-15T00:01:19.159Z,87.54
2023-04-15T00:02:21.024Z,87.29
2023-04-15T00:03:23.135Z,88.03
2023-04-15T00:04:25.007Z,89.47
2023-04-15T00:05:26.750Z,87.34
2023-04-15T00:06:28.380Z,87.76
2023-04-15T00:07:30.012Z,88.04
2023-04-15T00:08:31.757Z,88.97
2023-04-15T00:09:33.417Z,88.57
2023-04-15T00:10:34.998Z,88.16
2023-04-15T00:11:36.664Z,88.42
2023-04-15T00:12:38.310Z,91.27
2023-04-15T00:13:40.442Z,89.39
2023-04-15T00:14:42.079Z,90.20
2023-04-15T00:15:43.758Z,88.90
2023-04-15T00:16:45.445Z,89.89
2023-04-15T00:17:47.132Z,88.82
2023-04-15T00:18:49.162Z,88.50
2023-04-15T00:19:50.873Z,90.01
2023-04-15T00:20:52.670Z,88.42
2023-04-15T00:21:54.327Z,89.66
2023-04-15T00:22:56.633Z,89.73
2023-04-15T00:23:58.256Z,89.19
2023-04-15T00:24:59.870Z,88.31
2023-04-15T00:26:01.588Z,91.12
2023-04-15T00:27:03.678Z,90.97
2023-04-15T00:28:05.309Z,89.36
2023-04-15T00:29:06.950Z,90.06
2023-04-15T00:30:11.772Z,90.41
2023-04-15T00:31:13.533Z,91.90
2023-04-15T00:32:15.850Z,90.39
2023-04-15T00:33:17.803Z,90.91
2023-04-15T00:34:19.458Z,89.79
2023-04-15T00:35:21.747Z,89.13
2023-04-15T00:36:26.332Z,89.77
2023-04-15T00:37:27.887Z,91.79
2023-04-15T00:38:29.770Z,91.54
2023-04-15T00:39:31.434Z,91.40
2023-04-15T00:40:33.387Z,92.38
2023-04-15T00:41:35.144Z,91.51
2023-04-15T00:42:36.989Z,92.46
2023-04-15T00:43:38.636Z,92.53
2023-04-15T00:44:40.252Z,93.20
2023-04-15T00:45:41.906Z,93.61
2023-04-15T00:46:45.569Z,92.49
2023-04-15T00:47:47.240Z,91.92
2023-04-15T00:48:49.205Z,92.26
2023-04-15T00:49:51.107Z,91.79
2023-04-15T00:50:53.161Z,93.26
2023-04-15T00:51:54.770Z,93.44
2023-04-15T00:52:56.866Z,94.47
2023-04-15T00:53:58.759Z,92.29
2023-04-15T00:55:00.977Z,93.18
2023-04-15T00:56:02.606Z,92.17
2023-04-15T00:57:06.410Z,90.95
2023-04-15T00:58:08.000Z,92.42
2023-04-15T00:59:10.037Z,92.86
2023-04-15T01:00:14.446Z,92.47
2023-04-15T01:01:16.309Z,92.53
2023-04-15T01:02:18.081Z,92.15
2023-04-15T01:03:20.994Z,92.21
2023-04-15T01:04:23.052Z,91.64
2023-04-15T01:05:24.988Z,91.38
2023-04-15T01:06:27.295Z,91.67
2023-04-15T01:07:28.816Z,90.78
2023-04-15T01:08:30.840Z,91.30
2023-04-15T01:09:33.297Z,91.71
2023-04-15T01:10:35.993Z,90.63
2023-04-15T01:11:37.753Z,90.07
2023-04-15T01:12:39.609Z,90.38
2023-04-15T01:13:42.501Z,90.26
2023-04-15T01:14:44.187Z,90.40
2023-04-15T01:15:45.814Z,89.85
2023-04-15T01:16:48.539Z,90.34
2023-04-15T01:17:50.186Z,91.11
2023-04-15T01:18:52.171Z,90.91
2023-04-15T01:19:56.601Z,91.20
2023-04-15T01:20:58.214Z,92.05
2023-04-15T01:21:59.971Z,91.50
2023-04-15T01:23:01.585Z,90.70
2023-04-15T01:24:09.750Z,91.60
2023-04-15T01:25:19.468Z,90.97
2023-04-15T01:26:22.156Z,91.17
2023-04-15T01:27:23.886Z,91.67
2023-04-15T01:28:25.906Z,90.78
2023-04-15T01:29:27.987Z,92.09
2023-04-15T01:30:29.915Z,92.12
2023-04-15T01:31:31.955Z,93.02
2023-04-15T01:32:33.628Z,92.07
2023-04-15T01:33:35.496Z,91.86
2023-04-15T01:34:37.074Z,90.56
2023-04-15T01:35:38.982Z,91.06
2023-04-15T01:36:40.978Z,92.43
2023-04-15T01:37:42.653Z,90.63
2023-04-15T01:38:44.212Z,89.87
2023-04-15T01:39:46.328Z,90.51
2023-04-15T01:40:48.004Z,90.15
2023-04-15T01:41:49.572Z,90.46
2023-04-15T01:42:51.197Z,91.29
2023-04-15T01:43:53.244Z,90.43
2023-04-15T01:44:54.864Z,90.50
2023-04-15T01:45:56.618Z,90.85
2023-04-15T01:46:58.689Z,91.05
2023-04-15T01:48:02.173Z,91.29
2023-04-15T01:49:03.824Z,90.53
2023-04-15T01:50:07.504Z,91.20
2023-04-15T01:51:09.118Z,91.28
2023-04-15T01:52:10.663Z,91.03
2023-04-15T01:53:12.258Z,91.66
2023-04-15T01:54:13.915Z,90.70
2023-04-15T01:55:15.507Z,91.07
2023-04-15T01:56:17.115Z,90.96
2023-04-15T01:57:18.829Z,90.81
2023-04-15T01:58:20.639Z,90.43
2023-04-15T01:59:22.847Z,89.71
2023-04-15T02:00:24.878Z,90.07
2023-04-15T02:01:27.417Z,90.33
2023-04-15T02:02:29.286Z,89.25
2023-04-15T02:03:31.576Z,90.23
2023-04-15T02:04:34.181Z,89.19
2023-04-15T02:05:35.968Z,89.30
2023-04-15T02:06:39.329Z,89.38
2023-04-15T02:07:40.855Z,89.13
2023-04-15T02:08:43.465Z,89.01
2023-04-15T02:09:46.114Z,89.80
2023-04-15T02:10:48.488Z,90.42
2023-04-15T02:11:51.550Z,89.78
2023-04-15T02:12:54.224Z,89.56
2023-04-15T02:13:56.924Z,89.57
2023-04-15T02:15:00.433Z,90.15
2023-04-15T02:16:02.124Z,90.03
2023-04-15T02:17:07.382Z,91.72
2023-04-15T02:18:09.061Z,90.70
2023-04-15T02:19:11.066Z,91.07
2023-04-15T02:20:12.705Z,89.17
2023-04-15T02:21:14.535Z,89.05
2023-04-15T02:22:18.728Z,89.51
2023-04-15T02:23:21.336Z,88.96
2023-04-15T02:24:22.937Z,89.41
2023-04-15T02:25:24.594Z,89.24
2023-04-15T02:26:26.231Z,90.49
2023-04-15T02:27:30.593Z,90.30
2023-04-15T02:28:32.216Z,89.68
2023-04-15T02:29:33.785Z,89.67
2023-04-15T02:30:36.110Z,89.75
2023-04-15T02:31:40.552Z,89.78
2023-04-15T02:32:45.000Z,90.14
2023-04-15T02:33:46.871Z,89.42
2023-04-15T02:34:48.481Z,90.01
2023-04-15T02:35:50.197Z,90.53
2023-04-15T02:36:55.002Z,89.86
2023-04-15T02:37:56.958Z,89.29
2023-04-15T02:38:58.868Z,89.43
2023-04-15T02:40:01.359Z,89.93
2023-04-15T02:41:04.806Z,89.95
2023-04-15T02:42:06.375Z,89.86
2023-04-15T02:43:08.028Z,90.13
2023-04-15T02:44:11.424Z,90.57
2023-04-15T02:45:13.380Z,89.82
2023-04-15T02:46:16.180Z,89.56
2023-04-15T02:47:17.868Z,90.18
2023-04-15T02:48:20.448Z,90.22
2023-04-15T02:49:23.025Z,89.99
2023-04-15T02:50:25.706Z,91.08
2023-04-15T02:51:31.269Z,90.09
2023-04-15T02:52:32.984Z,90.75
2023-04-15T02:53:34.575Z,89.68
2023-04-15T02:54:36.356Z,90.09
2023-04-15T02:55:37.965Z,90.62
2023-04-15T02:56:39.545Z,90.04
2023-04-15T02:57:41.469Z,89.77
2023-04-15T02:58:45.695Z,90.69
2023-04-15T02:59:47.314Z,90.18
2023-04-15T03:00:50.904Z,89.98
2023-04-15T03:01:52.638Z,90.17
2023-04-15T03:02:59.440Z,89.88
2023-04-15T03:04:01.363Z,90.54
2023-04-15T03:05:03.077Z,90.53
2023-04-15T03:06:05.435Z,90.41
2023-04-15T03:07:07.165Z,89.70
2023-04-15T03:08:08.809Z,90.32
2023-04-15T03:09:10.465Z,91.67
2023-04-15T03:10:13.024Z,89.56
2023-04-15T03:11:15.333Z,90.57
2023-04-15T03:12:16.923Z,90.74
2023-04-15T03:13:20.119Z,91.08
2023-04-15T03:14:22.451Z,90.41
2023-04-15T03:15:24.167Z,90.21
2023-04-15T03:16:27.731Z,91.75
2023-04-15T03:17:29.370Z,91.72
2023-04-15T03:18:31.261Z,92.30
2023-04-15T03:19:36.505Z,91.94
2023-04-15T03:20:38.364Z,92.19
2023-04-15T03:21:39.992Z,91.21
2023-04-15T03:22:41.654Z,90.65
2023-04-15T03:23:43.516Z,92.48
2023-04-15T03:24:45.145Z,91.02
2023-04-15T03:25:46.840Z,91.77
2023-04-15T03:26:49.522Z,91.19
2023-04-15T03:27:52.479Z,89.74
2023-04-15T03:28:54.590Z,90.12
2023-04-15T03:29:56.826Z,90.15
2023-04-15T03:31:00.560Z,89.52
2023-04-15T03:32:02.233Z,90.31
2023-04-15T03:33:08.543Z,90.34
2023-04-15T03:34:10.680Z,90.10
2023-04-15T03:35:12.490Z,89.93
2023-04-15T03:36:14.324Z,89.51
2023-04-15T03:37:16.050Z,89.37
2023-04-15T03:38:18.131Z,89.76
2023-04-15T03:39:19.779Z,89.36
2023-04-15T03:40:21.590Z,89.66
2023-04-15T03:41:23.605Z,90.34
2023-04-15T03:42:25.186Z,89.61
2023-04-15T03:43:27.302Z,89.34
2023-04-15T03:44:28.987Z,88.69
2023-04-15T03:45:30.914Z,89.97
2023-04-15T03:46:32.636Z,89.33
2023-04-15T03:47:34.252Z,90.12
2023-04-15T03:48:36.170Z,89.71
2023-04-15T03:49:37.813Z,88.86
2023-04-15T03:50:39.464Z,89.47
2023-04-15T03:51:41.260Z,89.31
2023-04-15T03:52:42.872Z,91.21
2023-04-15T03:53:44.576Z,88.57
2023-04-15T03:54:46.426Z,89.06
2023-04-15T03:55:47.988Z,89.25
2023-04-15T03:56:49.582Z,88.78
2023-04-15T03:57:51.307Z,89.08
2023-04-15T03:58:52.964Z,88.88
2023-04-15T03:59:54.554Z,89.04
2023-04-15T04:00:56.300Z,88.40
2023-04-15T04:01:57.996Z,88.50
2023-04-15T04:02:59.902Z,87.60
2023-04-15T04:04:02.303Z,88.20
2023-04-15T04:05:04.537Z,88.35
2023-04-15T04:06:06.361Z,87.95
2023-04-15T04:07:07.958Z,87.80
2023-04-15T04:08:09.716Z,87.53
2023-04-15T04:09:11.356Z,87.17
2023-04-15T04:10:13.074Z,86.95
2023-04-15T04:11:14.752Z,88.16
2023-04-15T04:12:16.567Z,86.96
2023-04-15T04:13:18.187Z,88.87
2023-04-15T04:14:19.845Z,88.25
2023-04-15T04:15:21.494Z,88.50
2023-04-15T04:16:23.198Z,88.18
2023-04-15T04:17:25.002Z,88.51
2023-04-15T04:18:26.662Z,87.77
2023-04-15T04:19:29.959Z,87.20
2023-04-15T04:20:32.149Z,89.32
2023-04-15T04:21:34.213Z,88.09
2023-04-15T04:22:42.786Z,88.52
2023-04-15T04:23:44.416Z,88.01
2023-04-15T04:24:46.284Z,88.02
2023-04-15T04:25:47.912Z,88.86
2023-04-15T04:26:49.547Z,88.58
2023-04-15T04:27:51.342Z,89.35
2023-04-15T04:28:52.984Z,90.94
2023-04-15T04:29:54.588Z,87.46
2023-04-15T04:30:56.376Z,87.66
2023-04-15T04:31:58.016Z,88.38
2023-04-15T04:32:59.863Z,89.63
2023-04-15T04:34:01.523Z,87.88
2023-04-15T04:35:04.361Z,88.74
2023-04-15T04:36:06.424Z,88.93
2023-04-15T04:37:08.025Z,88.14
2023-04-15T04:38:09.675Z,88.77
2023-04-15T04:39:11.272Z,87.85
2023-04-15T04:40:13.175Z,87.44
2023-04-15T04:41:14.820Z,88.64
2023-04-15T04:42:16.688Z,87.47
2023-04-15T04:43:18.316Z,85.97
2023-04-15T04:44:19.932Z,86.89
2023-04-15T04:45:21.564Z,86.60
2023-04-15T04:46:23.848Z,87.70
2023-04-15T04:47:25.847Z,87.63
2023-04-15T04:48:27.603Z,86.04
2023-04-15T04:49:29.200Z,86.45
2023-04-15T04:50:31.081Z,87.95
2023-04-15T04:51:32.742Z,87.12
2023-04-15T04:52:34.357Z,87.53
2023-04-15T04:53:37.624Z,86.82
2023-04-15T04:54:39.253Z,86.22
2023-04-15T04:55:40.853Z,84.58
2023-04-15T04:56:42.435Z,84.81
2023-04-15T04:57:44.109Z,84.89
2023-04-15T04:58:45.861Z,83.87
2023-04-15T04:59:47.632Z,84.18
2023-04-15T05:00:49.253Z,84.20
2023-04-15T05:01:51.338Z,84.52
2023-04-15T05:02:53.206Z,84.38
2023-04-15T05:03:55.002Z,83.36
2023-04-15T05:04:56.860Z,82.61
2023-04-15T05:05:58.614Z,84.09
2023-04-15T05:07:00.217Z,83.77
2023-04-15T05:08:02.033Z,83.56
2023-04-15T05:09:03.908Z,83.99
2023-04-15T05:10:06.600Z,83.08
2023-04-15T05:11:08.506Z,83.70
2023-04-15T05:12:14.868Z,85.97
2023-04-15T05:13:16.472Z,82.86
2023-04-15T05:14:18.138Z,82.41
2023-04-15T05:15:20.417Z,82.93
2023-04-15T05:16:22.096Z,83.00
2023-04-15T05:17:23.734Z,83.10
2023-04-15T05:18:25.497Z,82.70
2023-04-15T05:19:27.227Z,81.41
2023-04-15T05:20:29.038Z,82.57
2023-04-15T05:21:31.731Z,81.26
2023-04-15T05:22:33.390Z,80.99
2023-04-15T05:23:34.971Z,80.03
2023-04-15T05:24:36.667Z,79.37
2023-04-15T05:25:38.213Z,80.27
2023-04-15T05:26:39.833Z,79.25
2023-04-15T05:27:41.538Z,79.24
2023-04-15T05:28:43.172Z,80.18
2023-04-15T05:29:44.939Z,79.27
2023-04-15T05:30:46.910Z,81.33
2023-04-15T05:31:48.631Z,79.66
2023-04-15T05:32:50.306Z,79.28
2023-04-15T05:33:52.019Z,78.79
2023-04-15T05:34:53.641Z,78.89
2023-04-15T05:35:55.569Z,79.46
2023-04-15T05:36:57.219Z,79.22
2023-04-15T05:37:58.831Z,80.05
2023-04-15T05:39:00.955Z,78.95
2023-04-15T05:40:02.748Z,79.58
2023-04-15T05:41:04.441Z,78.85
2023-04-15T05:42:06.241Z,79.85
2023-04-15T05:43:07.903Z,79.56
2023-04-15T05:44:09.504Z,79.12
2023-04-15T05:45:11.456Z,79.19
2023-04-15T05:46:13.061Z,79.84
2023-04-15T05:47:14.790Z,78.72
2023-04-15T05:48:16.427Z,79.22
2023-04-15T05:49:18.034Z,77.63
2023-04-15T05:50:20.868Z,79.59
2023-04-15T05:51:22.488Z,81.62
2023-04-15T05:52:24.113Z,78.43
2023-04-15T05:53:26.000Z,79.13
2023-04-15T05:54:27.931Z,78.87
2023-04-15T05:55:29.615Z,79.56
2023-04-15T05:56:31.699Z,78.55
2023-04-15T05:57:33.291Z,78.69
2023-04-15T05:58:34.893Z,79.12
2023-04-15T05:59:36.495Z,77.95
2023-04-15T06:00:38.672Z,77.50
2023-04-15T06:01:40.585Z,77.72
2023-04-15T06:02:42.650Z,78.31
2023-04-15T06:03:44.898Z,78.17
2023-04-15T06:04:46.664Z,77.55
2023-04-15T06:05:48.426Z,77.98
2023-04-15T06:06:50.040Z,78.18
2023-04-15T06:07:52.131Z,77.91
2023-04-15T06:08:55.732Z,77.52
2023-04-15T06:09:57.321Z,77.74
2023-04-15T06:10:58.998Z,77.29
2023-04-15T06:12:01.829Z,76.41
2023-04-15T06:13:04.987Z,76.76
2023-04-15T06:14:06.879Z,78.25
2023-04-15T06:15:10.414Z,76.55
2023-04-15T06:16:12.207Z,76.79
2023-04-15T06:17:15.001Z,75.87
2023-04-15T06:18:16.608Z,76.61
2023-04-15T06:19:18.485Z,77.51
2023-04-15T06:20:20.220Z,77.15
2023-04-15T06:21:21.914Z,77.83
2023-04-15T06:22:23.914Z,76.70
2023-04-15T06:23:26.947Z,76.86
2023-04-15T06:24:29.626Z,77.35
2023-04-15T06:25:31.285Z,77.95
2023-04-15T06:26:32.983Z,77.47
2023-04-15T06:27:34.651Z,76.56
2023-04-15T06:28:36.274Z,76.32
2023-04-15T06:29:37.908Z,77.05
2023-04-15T06:30:40.026Z,78.64
2023-04-15T06:31:41.945Z,76.51
2023-04-15T06:32:43.826Z,76.25
2023-04-15T06:33:45.540Z,76.57
2023-04-15T06:34:47.205Z,76.74
2023-04-15T06:35:49.717Z,76.88
2023-04-15T06:36:51.395Z,75.52
2023-04-15T06:37:53.023Z,77.03
2023-04-15T06:38:54.665Z,76.15
2023-04-15T06:39:56.281Z,76.71
2023-04-15T06:40:57.865Z,76.69
2023-04-15T06:41:59.495Z,76.75
2023-04-15T06:43:01.085Z,76.26
2023-04-15T06:44:02.814Z,77.07
2023-04-15T06:45:04.877Z,75.39
2023-04-15T06:46:06.529Z,76.08
2023-04-15T06:47:09.200Z,74.97
2023-04-15T06:48:10.840Z,76.24
2023-04-15T06:49:12.765Z,76.19
2023-04-15T06:50:16.580Z,74.94
2023-04-15T06:51:18.238Z,74.87
2023-04-15T06:52:19.834Z,75.36
2023-04-15T06:53:22.132Z,74.60
2023-04-15T06:54:23.786Z,74.49
2023-04-15T06:55:25.357Z,73.93
2023-04-15T06:56:27.119Z,72.66
2023-04-15T06:57:28.797Z,73.48
2023-04-15T06:58:30.422Z,73.95
2023-04-15T06:59:32.042Z,72.52
2023-04-15T07:00:34.048Z,73.33
2023-04-15T07:01:36.041Z,73.78
2023-04-15T07:02:38.098Z,72.40
2023-04-15T07:03:39.796Z,72.65
2023-04-15T07:04:41.466Z,73.98
2023-04-15T07:05:43.527Z,72.62
2023-04-15T07:06:45.181Z,71.80
2023-04-15T07:07:46.829Z,72.10
2023-04-15T07:08:48.739Z,72.24
2023-04-15T07:09:50.574Z,72.67
2023-04-15T07:10:52.371Z,73.03
2023-04-15T07:11:54.034Z,73.24
2023-04-15T07:12:55.657Z,71.97
2023-04-15T07:13:58.362Z,72.06
2023-04-15T07:14:59.962Z,71.41
2023-04-15T07:16:01.828Z,71.01
2023-04-15T07:17:03.466Z,71.72
2023-04-15T07:18:05.153Z,72.14
2023-04-15T07:19:07.400Z,70.98
2023-04-15T07:20:09.349Z,71.05
2023-04-15T07:21:11.356Z,71.17
2023-04-15T07:22:13.078Z,71.79
2023-04-15T07:23:14.790Z,69.19
2023-04-15T07:24:18.225Z,69.42
2023-04-15T07:25:19.855Z,69.80
2023-04-15T07:26:21.560Z,70.21
2023-04-15T07:27:23.215Z,70.28
2023-04-15T07:28:24.932Z,69.67
2023-04-15T07:29:27.150Z,69.24
2023-04-15T07:30:29.545Z,69.25
2023-04-15T07:31:31.428Z,68.55
2023-04-15T07:32:33.112Z,68.81
2023-04-15T07:33:34.859Z,68.95
2023-04-15T07:34:36.611Z,68.25
2023-04-15T07:35:38.279Z,68.51
2023-04-15T07:36:40.444Z,67.27
2023-04-15T07:37:43.365Z,69.12
2023-04-15T07:38:45.028Z,68.88
2023-04-15T07:39:47.226Z,68.46
2023-04-15T07:40:49.619Z,67.31
2023-04-15T07:41:51.290Z,68.96
2023-04-15T07:42:53.149Z,70.52
2023-04-15T07:43:55.294Z,67.94
2023-04-15T07:44:56.986Z,70.79
2023-04-15T07:45:58.669Z,71.92
2023-04-15T07:47:00.628Z,68.66
2023-04-15T07:48:03.001Z,69.16
2023-04-15T07:49:04.860Z,67.57
2023-04-15T07:50:06.849Z,66.55
2023-04-15T07:51:08.857Z,66.21
2023-04-15T07:52:10.525Z,67.83
2023-04-15T07:53:12.209Z,66.40
2023-04-15T07:54:14.092Z,67.76
2023-04-15T07:55:19.269Z,67.46
2023-04-15T07:56:20.916Z,67.90
2023-04-15T07:57:22.578Z,67.78
2023-04-15T07:58:24.236Z,67.62
2023-04-15T07:59:27.646Z,68.14
2023-04-15T08:00:29.346Z,68.48
2023-04-15T08:01:31.639Z,68.10
2023-04-15T08:02:33.464Z,68.52
2023-04-15T08:03:35.412Z,68.57
2023-04-15T08:04:37.546Z,67.16
2023-04-15T08:05:39.719Z,66.70
2023-04-15T08:06:41.616Z,68.87
2023-04-15T08:07:43.214Z,66.93
2023-04-15T08:08:44.832Z,67.64
2023-04-15T08:09:47.001Z,67.47
2023-04-15T08:10:50.229Z,69.59
2023-04-15T08:11:53.403Z,67.80
2023-04-15T08:12:55.139Z,67.99
2023-04-15T08:13:56.761Z,68.11
2023-04-15T08:14:58.434Z,67.06
2023-04-15T08:16:19.870Z,67.11
2023-04-15T08:17:22.016Z,68.21
2023-04-15T08:18:23.864Z,69.25
2023-04-15T08:19:25.526Z,67.99
2023-04-15T08:20:27.186Z,65.97
2023-04-15T08:21:30.917Z,68.43
2023-04-15T08:22:32.649Z,68.07
2023-04-15T08:23:34.667Z,68.53
2023-04-15T08:24:36.754Z,68.04
2023-04-15T08:25:41.142Z,66.89
2023-04-15T08:26:43.251Z,67.47
2023-04-15T08:27:44.868Z,67.70
2023-04-15T08:28:46.920Z,66.80
2023-04-15T08:29:48.653Z,65.15
2023-04-15T08:30:50.591Z,66.32
2023-04-15T08:31:53.976Z,68.04
2023-04-15T08:32:55.773Z,66.52
2023-04-15T08:33:57.869Z,68.30
2023-04-15T08:34:59.485Z,66.66
2023-04-15T08:36:01.251Z,66.73
2023-04-15T08:37:02.857Z,67.20
2023-04-15T08:38:04.462Z,67.82
2023-04-15T08:39:06.108Z,66.82
2023-04-15T08:40:09.327Z,67.53
2023-04-15T08:41:47.851Z,66.79
2023-04-15T08:42:53.144Z,66.26
2023-04-15T08:43:58.119Z,66.49
2023-04-15T08:45:01.622Z,67.11
2023-04-15T08:46:04.440Z,65.86
2023-04-15T08:47:08.283Z,66.58
2023-04-15T08:48:16.544Z,66.26
2023-04-15T08:49:19.420Z,66.82
2023-04-15T08:50:21.155Z,66.03
2023-04-15T08:51:24.564Z,67.46
2023-04-15T08:52:26.749Z,65.96
2023-04-15T08:53:29.889Z,67.25
2023-04-15T08:54:31.663Z,65.51
2023-04-15T08:55:35.859Z,64.66
2023-04-15T08:56:39.046Z,67.49
2023-04-15T08:57:40.665Z,65.91
2023-04-15T08:58:44.702Z,66.82
2023-04-15T08:59:46.705Z,66.45
2023-04-15T09:00:48.754Z,66.17
2023-04-15T09:01:53.376Z,67.51
2023-04-15T09:02:59.265Z,66.01
2023-04-15T09:04:03.047Z,67.10
2023-04-15T09:05:06.656Z,68.04
2023-04-15T09:06:08.685Z,65.59
2023-04-15T09:07:10.264Z,66.00
2023-04-15T09:08:11.911Z,67.01
2023-04-15T09:09:14.529Z,66.37
2023-04-15T09:10:16.227Z,65.12
2023-04-15T09:11:20.251Z,67.30
2023-04-15T09:12:22.232Z,65.06
2023-04-15T09:13:23.824Z,65.68
2023-04-15T09:14:25.489Z,66.43
2023-04-15T09:15:29.980Z,65.84
2023-04-15T09:16:31.847Z,66.89
2023-04-15T09:17:34.588Z,66.44
2023-04-15T09:18:39.473Z,65.89
2023-04-15T09:19:41.161Z,65.24
2023-04-15T09:20:43.074Z,65.92
2023-04-15T09:21:47.729Z,66.22
2023-04-15T09:22:50.153Z,66.44
2023-04-15T09:24:00.628Z,66.98
2023-04-15T09:25:02.360Z,67.65
2023-04-15T09:26:05.103Z,67.05
2023-04-15T09:27:06.954Z,66.18
2023-04-15T09:28:08.646Z,66.01
2023-04-15T09:29:13.561Z,65.43
2023-04-15T09:30:16.903Z,65.33
2023-04-15T09:31:19.238Z,66.08
2023-04-15T09:32:23.477Z,66.17
2023-04-15T09:33:27.107Z,66.07
2023-04-15T09:34:38.531Z,65.55
2023-04-15T09:35:40.672Z,65.91
2023-04-15T09:36:49.684Z,66.11
2023-04-15T09:37:52.943Z,65.22
2023-04-15T09:38:58.922Z,65.95
2023-04-15T09:40:00.627Z,65.66
2023-04-15T09:41:02.539Z,64.61
2023-04-15T09:42:13.217Z,66.09
2023-04-15T09:43:17.294Z,64.25
2023-04-15T09:44:26.017Z,64.97
2023-04-15T09:45:29.676Z,65.23
2023-04-15T09:46:42.291Z,63.92
2023-04-15T09:47:44.469Z,65.17
2023-04-15T09:48:46.641Z,65.70
2023-04-15T09:49:59.075Z,64.04
2023-04-15T09:51:01.837Z,63.67
2023-04-15T09:52:05.761Z,64.54
2023-04-15T09:53:09.872Z,64.52
2023-04-15T09:54:11.467Z,64.36
2023-04-15T09:55:14.383Z,63.74
2023-04-15T09:56:15.939Z,64.54
2023-04-15T09:57:17.597Z,62.68
2023-04-15T09:58:20.902Z,63.58
2023-04-15T09:59:22.628Z,63.71
2023-04-15T10:00:24.324Z,63.80
2023-04-15T10:01:25.978Z,63.13
2023-04-15T10:02:28.466Z,63.60
2023-04-15T10:03:31.592Z,61.63
2023-04-15T10:04:36.583Z,60.87
2023-04-15T10:05:38.594Z,61.31
2023-04-15T10:06:41.314Z,63.74
2023-04-15T10:07:43.572Z,61.53
2023-04-15T10:08:46.116Z,59.46
2023-04-15T10:09:49.179Z,60.19
2023-04-15T10:10:52.223Z,62.98
2023-04-15T10:11:53.832Z,60.08
2023-04-15T10:12:56.107Z,59.54
2023-04-15T10:13:57.842Z,60.15
2023-04-15T10:15:05.021Z,59.53
2023-04-15T10:16:11.244Z,59.12
2023-04-15T10:17:13.758Z,59.00
2023-04-15T10:18:16.265Z,59.01
2023-04-15T10:19:19.669Z,58.71
2023-04-15T10:20:22.802Z,56.89
2023-04-15T10:21:24.905Z,58.29
2023-04-15T10:22:28.233Z,57.24
2023-04-15T10:23:30.602Z,55.81
2023-04-15T10:24:33.021Z,55.26
2023-04-15T10:25:34.826Z,54.63
2023-04-15T10:26:36.943Z,55.05
2023-04-15T10:27:41.029Z,52.47
2023-04-15T10:28:42.937Z,52.88
2023-04-15T10:29:44.699Z,50.58
2023-04-15T10:30:47.990Z,50.74
2023-04-15T10:31:49.823Z,50.37
2023-04-15T10:32:51.796Z,49.67
2023-04-15T10:33:53.559Z,47.67
2023-04-15T10:34:55.648Z,46.77
2023-04-15T10:35:57.533Z,48.98
2023-04-15T10:37:03.124Z,49.66
2023-04-15T10:38:37.843Z,47.93
2023-04-15T10:39:41.654Z,48.27
2023-04-15T10:40:45.352Z,47.92
2023-04-15T10:42:06.284Z,47.46
2023-04-15T10:43:07.881Z,47.81
2023-04-15T10:44:09.449Z,48.50
2023-04-15T10:45:17.740Z,49.25
2023-04-15T10:46:21.962Z,50.89
2023-04-15T10:47:23.980Z,47.97
2023-04-15T10:48:25.920Z,48.55
2023-04-15T10:49:27.648Z,51.88
2023-04-15T10:50:31.687Z,52.87
2023-04-15T10:51:33.383Z,51.62
2023-04-15T10:52:34.944Z,50.99
2023-04-15T10:53:37.882Z,50.83
2023-04-15T10:54:39.794Z,50.56
2023-04-15T10:55:41.456Z,50.07
2023-04-15T10:56:44.522Z,52.20
2023-04-15T10:57:46.085Z,54.33
2023-04-15T10:58:47.692Z,53.56
2023-04-15T11:00:04.585Z,52.25
2023-04-15T11:01:07.157Z,53.57
2023-04-15T11:02:09.063Z,51.96
2023-04-15T11:03:10.963Z,53.44
2023-04-15T11:04:12.829Z,54.19
2023-04-15T11:05:16.351Z,54.17
2023-04-15T11:06:17.974Z,55.24
2023-04-15T11:07:43.700Z,55.02
2023-04-15T11:08:59.542Z,54.41
2023-04-15T11:10:01.827Z,55.38
2023-04-15T11:11:03.628Z,55.52
2023-04-15T11:12:09.801Z,56.06
2023-04-15T11:13:11.641Z,56.94
2023-04-15T11:14:16.370Z,58.24
2023-04-15T11:15:41.682Z,59.02
2023-04-15T11:16:45.034Z,60.21
2023-04-15T11:17:46.930Z,63.78
2023-04-15T11:18:55.763Z,61.70
2023-04-15T11:19:58.255Z,63.19
2023-04-15T11:21:04.294Z,63.30
2023-04-15T11:22:10.212Z,63.12
2023-04-15T11:23:15.284Z,63.96
2023-04-15T11:24:29.246Z,62.61
2023-04-15T11:25:33.533Z,61.91
2023-04-15T11:26:35.668Z,62.85
2023-04-15T11:27:37.936Z,57.86
2023-04-15T11:28:41.651Z,54.53
2023-04-15T11:29:44.302Z,54.91
2023-04-15T11:30:45.901Z,51.76
2023-04-15T11:31:49.729Z,51.85
2023-04-15T11:32:58.481Z,51.96
2023-04-15T11:34:02.374Z,52.78
2023-04-15T11:35:04.772Z,50.62
2023-04-15T11:36:07.656Z,52.19
2023-04-15T11:37:10.264Z,47.54
2023-04-15T11:38:16.778Z,48.38
2023-04-15T11:39:18.398Z,45.45
2023-04-15T11:40:27.968Z,49.68
2023-04-15T11:41:29.570Z,47.65
2023-04-15T11:42:42.765Z,46.79
2023-04-15T11:43:48.457Z,47.60
2023-04-15T11:44:50.074Z,46.93
2023-04-15T11:45:58.423Z,48.81
2023-04-15T11:47:00.087Z,46.79
2023-04-15T11:48:12.283Z,47.39
2023-04-15T11:49:29.550Z,47.68
2023-04-15T11:50:31.249Z,47.99
2023-04-15T11:51:34.454Z,48.90
2023-04-15T11:52:36.183Z,47.65
2023-04-15T11:53:41.264Z,48.31
2023-04-15T11:54:42.949Z,48.17
2023-04-15T11:55:47.043Z,47.86
2023-04-15T11:56:52.876Z,48.38
2023-04-15T11:58:08.746Z,49.36
2023-04-15T11:59:10.399Z,49.41
2023-04-15T12:00:12.774Z,49.27
2023-04-15T12:01:14.420Z,47.63
2023-04-15T12:02:16.546Z,47.47
2023-04-15T12:03:27.692Z,47.16
2023-04-15T12:04:29.919Z,47.86
2023-04-15T12:05:31.860Z,47.22
2023-04-15T12:06:38.916Z,47.07
2023-04-15T12:08:00.936Z,46.51
2023-04-15T12:09:16.814Z,46.39
2023-04-15T12:10:18.517Z,47.25
2023-04-15T12:11:21.550Z,48.57
2023-04-15T12:12:27.513Z,48.01
2023-04-15T12:13:29.148Z,46.50
2023-04-15T12:14:32.544Z,47.19
2023-04-15T12:15:39.327Z,47.40
2023-04-15T12:16:54.180Z,47.50
2023-04-15T12:17:55.941Z,47.61
2023-04-15T12:18:59.241Z,47.92
2023-04-15T12:20:00.919Z,47.06
2023-04-15T12:21:10.819Z,47.43
2023-04-15T12:22:15.267Z,47.83
2023-04-15T12:23:20.088Z,48.38
2023-04-15T12:24:24.880Z,48.00
2023-04-15T12:25:35.850Z,48.00
2023-04-15T12:26:44.812Z,46.95
2023-04-15T12:27:52.160Z,51.12
2023-04-15T12:29:08.259Z,48.41
2023-04-15T12:30:11.624Z,48.21
2023-04-15T12:31:14.540Z,50.46
2023-04-15T12:32:17.338Z,47.75
2023-04-15T12:33:19.015Z,49.18
2023-04-15T12:34:35.770Z,47.83
2023-04-15T12:35:37.527Z,49.17
2023-04-15T12:36:39.155Z,48.27
2023-04-15T12:37:41.001Z,50.00
2023-04-15T12:38:42.568Z,50.07
2023-04-15T12:39:48.015Z,49.94
2023-04-15T12:40:49.625Z,51.13
2023-04-15T12:41:52.434Z,53.31
2023-04-15T12:42:54.054Z,53.88
2023-04-15T12:43:55.692Z,51.29
2023-04-15T12:44:57.488Z,51.82
2023-04-15T12:45:59.141Z,52.11
2023-04-15T12:47:00.994Z,52.28
2023-04-15T12:48:02.975Z,50.43
2023-04-15T12:49:04.770Z,52.31
2023-04-15T12:50:07.075Z,52.12
2023-04-15T12:51:08.612Z,55.15
2023-04-15T12:52:10.431Z,53.65
2023-04-15T12:53:12.025Z,53.71
2023-04-15T12:54:13.649Z,54.10
2023-04-15T12:55:16.283Z,53.69
2023-04-15T12:56:18.185Z,53.66
2023-04-15T12:57:19.828Z,55.09
2023-04-15T12:58:21.505Z,54.42
2023-04-15T12:59:24.216Z,55.20
2023-04-15T13:00:26.091Z,54.71
2023-04-15T13:01:27.818Z,54.93
2023-04-15T13:02:29.734Z,55.16
2023-04-15T13:03:31.835Z,53.54
2023-04-15T13:04:33.629Z,53.97
2023-04-15T13:05:37.067Z,54.52
2023-04-15T13:06:38.822Z,53.60
2023-04-15T13:07:40.561Z,53.42
2023-04-15T13:08:47.955Z,53.51
2023-04-15T13:09:56.910Z,53.66
2023-04-15T13:10:58.788Z,56.02
2023-04-15T13:12:00.770Z,55.72
2023-04-15T13:13:03.205Z,54.39
2023-04-15T13:14:06.448Z,55.26
2023-04-15T13:15:11.303Z,53.65
2023-04-15T13:16:12.943Z,54.50
2023-04-15T13:17:14.591Z,55.65
2023-04-15T13:18:16.555Z,55.71
2023-04-15T13:19:18.174Z,55.77
2023-04-15T13:20:19.826Z,55.13
2023-04-15T13:21:21.810Z,54.68
2023-04-15T13:22:23.512Z,55.17
2023-04-15T13:23:25.242Z,55.03
2023-04-15T13:24:26.869Z,55.88
2023-04-15T13:25:28.546Z,55.27
2023-04-15T13:26:31.304Z,55.64
2023-04-15T13:27:33.663Z,55.31
2023-04-15T13:28:35.308Z,56.03
2023-04-15T13:29:37.043Z,57.67